Espace membre
Imprimable
Challenges > Delhalle - Butgenbach, 06/05/2006, BEL - Rund um den See
Liste des rapports > Delhalle - 21km - Classement scratch
Recherche: Page: [1]
447 Entrées
 
Les réclamations ne sont plus acceptées, les résultats sont considérés comme définitifs.
Catégorie
PosNrNomAgeIOCLigueEquipeRéelTempsTkmMoy.RangNomPtsLocalité
1.48DUPONT Eddy37BELONHOXY20001:13:471:13:483:31 17.071SEN1109ECAUSSINNES
2.9DEVEIRMAN Didier26BELCSFANTILOB1:14:161:14:173:33 16.962SEN1101BEERSEL
3.19VANDERSTRAETEN Patrick42BELVITATRAINING71:14:511:14:533:34 16.831VE11092TUBIZE
4.1190ALSTEENS Luc32BELAXA TEAM1:15:281:15:293:36 16.693SEN1082BEERSEL
5.1134VANDERBECK Yves38BELRIWARONVAU1:17:331:17:343:42 16.244SEN1051MALONNE
6.600CONIGLIO Lorenzo35BELUACDILAVILE1:19:551:19:573:49 15.765SEN1017
7.163NUTELET Carlos52BELCABWNAC1:20:171:20:193:50 15.691VE21012ECAUSSINES
8.2236VIJVERMAN Jan25BELEA1:21:191:21:213:53 15.496SEN997HAALTERT
9.411RODRIGUEZ Luis46BELCEPAL1:22:191:22:203:56 15.302VE1982TUBIZE
10.6HUYGHE Vincent43BELMOHATP VERT1:22:461:22:493:57 15.213VE1976JEMAPPES
11.2325ROHL Francis35BELSV BERGWACHT RO1:23:041:23:073:58 15.167SEN971
12.11DUBOIS Michel49BELHERV1:23:101:23:123:58 15.144VE1969WELKENRAEDT
13.1150MOENS Alain52BELKURISTO1:23:151:23:173:58 15.132VE2967KRAAINEM
14.388HERBET Henri44BELSPA1:23:161:23:193:59 15.125VE1966JALHAY
15.2034LANGER Stephan30BEL1:23:271:23:303:59 15.098SEN963ELSENBORN
16.1529LOMBART Frederic39BEL1:23:311:23:333:59 15.089SEN961GEMBLOUX
17.2057LANGER Pascal40BELSCBUTG1:23:561:23:584:00 15.016VE1955
18.1039SNAPS Jean-Francois45BELCABWNAC1:25:111:25:124:04 14.797VE1938NETHEN
19.1171HANUS Michel48BELUACBOUFFIOLS1:25:191:25:224:04 14.768VE1935ROSELIES
20.2054CONIGLIO Joseph38BELDILAVILE1:26:061:26:084:07 14.6310SEN925
21.541FILLEE Eric46BELUACDILAVILE1:26:171:26:194:07 14.609VE1922CHATELINEAU
22.1023FSMITH Julia-Frances37BELIXELTRAINING71:26:361:26:394:08 14.541DAM917GENVAL
23.2346BASTIN Samuel27BEL1:26:311:26:394:08 14.5411SEN917
24.2263SURKIJN Erik41BELDCLA1:27:051:27:084:09 14.4610VE1909
25.1631CADO Paul46BELFLEU1:27:231:27:264:10 14.4111VE1904LIGNY
26.271GERLACHE Mathieu41BELCE CDO1:27:301:27:314:11 14.4012VE1902DAUSSOULX
27.1296COLLOT Joseph42BELANTILOB1:27:381:27:414:11 14.3713VE1900GREZ-DOICEAU
28.2286BIGOT Pascal36BELCE CDO1:27:451:27:474:11 14.3512SEN898
29.1735UITDEBROEKS Romain56BELACA1:27:541:27:574:12 14.333VE2895ALKEN
30.675TRUYERS Hugo58BELDCLA1:28:161:28:194:13 14.274VE2890LINKHOUT
31.2223LUX Christian30BELSCBUTG1:28:261:28:344:14 14.2313SEN887BÜLLINGEN
32.3002CG69439 BEL1:28:251:28:344:14 14.231XXX886
33.2226MARCHAL Yves24BEL1:28:241:28:354:14 14.2214SEN886EUPEN
34.2237VILLERS Francis40BEL1:28:401:28:404:14 14.2114VE1882STAVELOT
35.364BOUVIER Victor31BELRCN1:28:321:28:564:15 14.1715SEN883BOUGE
36.57LUCCHESE Serge47BELAMAY1:28:561:28:594:15 14.1615VE1877AMAY
37.2352MILANTS Alain37BELDUURSPOR1:29:091:29:144:15 14.1216SEN873MERCHTEM
38.2358BUCHE Jean-Pascal34BEL1:29:111:29:234:16 14.1017SEN872
39.2308MEYS Guido35NLDACHILLESTOP1:29:311:29:374:17 14.0618SEN867BOCHOLTZ
40.131LEMAIRE Philippe40BELRONVAU1:29:341:29:384:17 14.0616VE1866LASNE
41.1814DECRAEMER Geert39BELSODIBURG1:29:501:29:544:17 14.0219SEN862BRUGGE
42.1172DIEPENDAELE Rudi43BELACLOJC MARIEMO1:30:101:30:144:18 13.9617VE1857LA HESTRE
43.2239THAETER Josef47BELLACE1:30:221:30:254:19 13.9418VE1854
44.2233VAN SEBROECK Bruno37BEL1:31:171:31:214:21 13.7920SEN842WEERDE
45.769LEMINEUR Vincent41BELRCN1:31:211:31:264:22 13.7819VE1840CHAMPION
46.2273KRINGS Gunter44BELSCBUTG1:31:231:31:304:22 13.7720VE1840
47.2031WATZLAWEK Stefan28DEUMC ESCHWEILER1:31:131:31:304:22 13.7721SEN841AACHEN
48.2003CELIS Paul51BELLIERNIJLENSE AV1:31:231:31:334:22 13.765VE2838NIJLEN
49.2258DIELENS David36BELLIERNIJLENSE AV1:31:381:31:494:23 13.7222SEN834
50.219DEWIT Raymond36BELAMAY1:31:531:31:564:23 13.7123SEN830WANZE
51.1151LANNOY Michel52BELAMAY1:32:031:32:064:24 13.686VE2828JEHAY
52.2048CLAAHSEN Ulrich51DEU1:32:081:32:144:24 13.667VE2826KALTHERHERBERG
53.2272MERTENS Jurgen42BELLACE1:32:041:32:174:24 13.6521VE1826EUPEN
54.2053HEINEN Danny34BELSCBUTG1:32:221:32:264:25 13.6324SEN822BUTGENBACH
55.2224MACKELS Daniel38BELSCBUTG1:32:491:32:564:26 13.5625SEN815ELSENBORN
56.906DELVAUX Paul62BELACACAMPFOOT1:33:031:33:064:26 13.531VE3812DIEPENBEEK
57.355ROBERTI Xavier23BELRFCL1:33:121:33:194:27 13.5026SEN809LIEGE
58.2314FLECOQ Francoise45BEL1:33:261:33:314:28 13.471AI1806MALMEDY
59.1211VAN DEN BROECK Raf53BELACA1:33:251:33:344:28 13.478VE2805HASSELT
60.2271GROTECLAES Edgar39BELLACELACE1:33:251:33:394:28 13.4527SEN805
61.521RAEYMAEKERS Ludovic52BELBVAC1:33:591:34:034:29 13.409VE2797MORTSEL
62.76LAFORGE Claude47BELHRCHRC1:34:111:34:134:30 13.3722VE1794WOLKRANGE
63.2013JAMAR Frédéric27BELSCBUTG1:33:581:34:134:30 13.3728SEN796WAIMES
64.314LEROY Patrick35BEL1:34:111:34:244:30 13.3529SEN793MARBEHAN
65.313FLEGRAND Francine36BEL1:34:291:34:314:31 13.332DAM788DAUSSOULX
66.1520MARLAIR Julien24BEL1:34:381:34:454:31 13.3030SEN786HOUYET
67.228MARCHAL Yves36BELRUN WILD1:34:541:34:584:32 13.2731SEN782VEDRIN
68.1278LORANT Manu44BEL1:34:571:35:074:32 13.2523VE1781MALONNE
69.223BOSCH Adrien15BELAMAY1:35:411:35:434:34 13.161ESP771VINALMONT
70.156DUMONT J.Luc49BELACLOST BERNARD1:35:381:35:464:34 13.1624VE1771LA LOUVIERE
71.727LEUS Stefan39BEL1:35:411:35:464:34 13.1632SEN770HOLSBEEK
72.384FDESMEDT Cindy28BELBEERS VL1:35:441:35:494:34 13.153DAM769BEERSEL
73.2221LEYSEN Eric42BELLIER1:36:031:36:144:35 13.0925VE1764NIJLEN
74.679MORONE Yves39BELARCHRCN1:36:081:36:184:36 13.0833SEN762HAMOIS
75.1844BILLY Jacques-Henry36BELHRC1:36:131:36:254:36 13.0734SEN761ARLON
76.387BOSKIN Bernard18BEL1:36:201:36:264:36 13.072ESP759STAVELOT
77.512CG26991 BEL1:36:221:36:284:36 13.062XXX758
78.1650NEYMAN Eric38BEL1:36:121:36:284:36 13.0635SEN759HERON
79.1392DE MASI Gianni53BELFLEU1:36:311:36:354:36 13.0510VE2754WANFARCEE BAULET
80.1341MICHA Pol54BELEPIDEMIE1:36:381:36:424:37 13.0311VE2752VOROUX-LEZ-LIERS
81.3008DF9GBWE BEL1:36:321:36:464:37 13.023XXX753
82.2280VERVOORT Willy55BELLIERNIJLENSE AV1:36:381:36:494:37 13.0112VE2751
83.2313VAN DYCK Dimitri27BEL1:36:381:36:594:38 12.9936SEN750MALMEDY
84.392FBRIALMONT Irene49BELSPASPA1:37:071:37:104:38 12.972AI1744SPA
85.1801PLASQUI Michel44BELLDLV1:37:111:37:204:39 12.9526VE1742ST JOSSE
86.2022ROOMANS Christian43BELLE JOUR VERVIER1:37:011:37:204:39 12.9527VE1743VERVIERS
87.240FONTAINE Bernard43BELIXELKURISTO1:37:241:37:274:39 12.9328VE1738BRUXELLES
88.1717FIGYS Koen33BELAXA TEAM1:37:231:37:314:39 12.9237SEN738OPWIJK
89.951FINK Edgar53BELSCBUTG1:37:301:37:434:40 12.8913VE2735ELSENBORN
90.2255HENDERYCKX Geert43BELLIERNIJLENSE AV1:37:521:38:034:41 12.8529VE1731KESSEL
90.2351WEY Marc39BELTEAM NELLES1:37:571:38:034:41 12.8538SEN730MALMEDY
92.193DI BIASE Renato41BELBOUFFIOLS1:37:441:38:034:41 12.8530VE1731COUILLET
93.584UBIETA Didier45BELAMAY1:38:121:38:144:41 12.8331VE1725VINALMONT
94.1883MAURO Calogero66BELSERSERUNNER1:38:091:38:144:41 12.832VE3725SERAING
95.1737DETROZ Luc45BELRCN1:38:071:38:174:41 12.8232VE1724VEDRIN
96.1614JANSSEN Serge39BEL1:38:151:38:214:41 12.8139SEN722FAULX-LES-TOMBES
97.2243FRERE Gilles34BEL1:38:251:38:294:42 12.7940SEN719VILLE-EN-HESBAYE
98.556RATINCKX Jean Philippe18BELRIWA1:38:281:38:334:42 12.793ESP718BIERGES
99.1333MARIEN Rik57BELVACH1:38:321:38:364:42 12.7814VE2716HASSELT
100.781OLIVIER Bob47BEL1:38:331:38:374:42 12.7833VE1716WAREMME
101.2335ROGIERS Arnout31BEL1:38:321:38:384:42 12.7741SEN715
102.2246ROZEIN Dieter40BELCLUB 13301:38:341:38:414:42 12.7734VE1714BUTGENBACH
103.2038WERKER Christian24DEU1:38:381:38:424:42 12.7742SEN712
104.1617PINDEVILLE Christian58BELRIWA1:38:381:38:434:43 12.7615VE2711WAVRE
105.2365DETRY Philippe50BELHFLE JOUR VERVIER1:38:301:38:494:43 12.7516VE2712VERVIERS
106.2362WINTGENS Luc48BEL1:38:301:38:494:43 12.7535VE1712JALHAY
107.2035FSCHWAN Claudia40BELGERMANIA EICHER1:38:471:38:554:43 12.743AI1708
108.385GONDA Gilbert55BELSERSERUNNER1:39:081:39:134:44 12.7017VE2703IVOZ-RAMET (FLEMALLE)
109.2257VAN HOL Patrick46BELLIERNIJLENSE AV1:39:041:39:154:44 12.7036VE1703KESSEL
110.2260SCHOMMERS Raymond50BELEIFELBIKER1:39:111:39:194:44 12.6918VE2701BUTGENBACH
111.2042BRANDENBURG Elmar41DEUTV KALTERHERBER1:39:281:39:354:45 12.6537VE1697MONSCHAU
112.2043FBRANDENBURG Irmgard40DEUTV KALTERHERBER1:39:291:39:354:45 12.654AI1696MONSCHAU
113.2311BORN René40BELSV HONSFELD1:39:371:39:464:46 12.6338VE1694BULLINGEN
114.2294COLLAS Jean-Luc30BELSV HONSFELD1:39:371:39:474:46 12.6343SEN693BULLINGEN
115.1991SPLINGARD Dominique46BELNACAMIS FB1:39:461:40:034:46 12.5939VE1691HAINE-ST-PIERRE
116.1639DEFRAENE Patrick44FRAANTILOB1:39:591:40:034:46 12.5940VE1687NODEBAIS
117.2259KISZA Christof49BELTSV ALEMANIA1:39:501:40:064:46 12.5941VE1688
118.2337PEIFFER Laurent27BEL1:39:501:40:104:47 12.5844SEN688HACHY
119.692ROBERT Michel56BELBOUFFIOLS1:40:001:40:194:47 12.5619VE2685GERPINNES
120.2302ROMBACH Rudolf39DEU1:40:071:40:274:47 12.5445SEN683MONSCHAU
121.2332WOLFF Berthold52BELLACE1:40:331:40:444:48 12.5120VE2678RAEREN
122.486CANIVET Roland59BELUACBOUFFIOLS1:40:341:40:534:49 12.4921VE2677NALINNES
123.1464DESSEILLE Ernest52BEL1:40:391:40:564:49 12.4822VE2675WEPION
124.1270VANWYMELBEKE Laurent35BELJCL1:40:551:41:004:49 12.4846SEN671DOTTIGNIES
125.2204DE MEYER Marnix49BELFLAC - ROESELAR1:40:391:41:004:49 12.4842VE1673RUMBEKE
126.2058WEYER Matthias46DEUNEIN1:41:021:41:084:49 12.4643VE1669DÜREN
127.1873BONJEAN Rene63BEL1:41:011:41:104:50 12.453VE3668WEPION
128.1815DIEUDONNE Emile53BELARCH1:40:431:41:114:50 12.4523VE2671DINANT
129.2216KRIER Benoit35BEL1:41:021:41:114:50 12.4547SEN666SELANGE
130.1992FDAMBLON Regine51BELACLOBJB1:41:061:41:124:50 12.451AI2665LA LOUVIERE
131.2266HILGERS Manuel21BEL1:41:121:41:214:50 12.4348SEN663
132.695DE DAPPER David33BEL1:41:221:41:254:50 12.4249SEN660
133.2334CRAMILLION Michel54BELTEAM 331:41:251:41:304:50 12.4124VE2659WELKENRAEDT
134.2327ANDRE Rene46BEL1:41:161:41:374:51 12.4044VE1660
135.2269BERTHET Alain48BEL1:41:241:41:424:51 12.3945VE1658DION VALMONT
136.2290BRAUN Christof39BEL1:41:301:41:504:51 12.3750SEN656
137.2210GLADIEUX Philip37BELSCBUTG1:41:531:42:034:52 12.3551SEN651WEYWERTZ
138.2208DESENFANTS Manfred38BELSCBUTG1:42:021:42:094:52 12.3352SEN649ELSENBORN
139.2306BASTEK Hermann55DEUTV ROETG1:41:571:42:114:52 12.3325VE2649ROETGEN
140.1434VASSART Quentin22BEL1:42:051:42:214:53 12.3153SEN647NAMUR
141.2331DECORTE Jeroen18BEL1:42:221:42:274:53 12.304ESP643
142.2279VERHAEGEN Eddy60LUXNIJLENSE AV1:42:271:42:394:54 12.274VE3641
143.2004CEUSTERS Patrick41BEL1:42:331:42:424:54 12.2746VE1639ROTSELAAR
144.2021POYSAT Georges46BELCAPNRB1:42:351:42:464:54 12.2647VE1638OUGREE
145.397FDEJMEK Paulina30BELCACE1:42:411:42:484:54 12.264DAM637BRUXELLES
146.2232VAN ELSUWE Kurt30BEL1:42:441:42:494:54 12.2554SEN635HOUWAART
147.1480BOUCHET Fabrice47BELHRC1:42:271:42:534:54 12.2548VE1637IZEL
148.1980VIDICK Jean-Luc53BEL1:42:511:42:554:55 12.2426VE2632BRUXELLES
149.907FDION Chantal55BELKURISTO1:42:521:42:564:55 12.242AI2632KRAAINEM
150.1162DUJARDIN Philippe25BEL1:42:501:42:584:55 12.2455SEN631VERVIERS
151.2301DAEL Fabrice27BEL1:42:511:42:584:55 12.2456SEN630
152.353VALCKX Geert43BELKAPUCIJN1:43:021:43:084:55 12.2249VE1627BERTEM
153.2037THEILE Manfred38DEUTV KONZEN1:42:571:43:124:55 12.2157SEN628
154.2046HANF Raymond56BELSCBUTG1:43:081:43:154:55 12.2027VE2625BUTGENBACH
155.837CEUPPENS Paul45BELHAMURABI1:43:091:43:264:56 12.1850VE1624LINT
156.2281BELMANS Alex54BELLIERNIJLENSE AV1:43:161:43:274:56 12.1828VE2622
157.1522FBELABBES Angelique32BELBINCEPAL1:43:251:43:294:56 12.185DAM620TERVUREN
158.2231STERCK Ronan51BEL1:43:251:43:294:56 12.1829VE2619
159.2307MULLENDER Serge44BELLACE1:43:141:43:304:56 12.1751VE1620
160.994LIGOT Alain51BELFOUL PLAIS1:43:081:43:404:57 12.1530VE2620HUY
161.20DEGROOT Jean58BELFCHA1:43:451:43:494:57 12.1431VE2613HANNUT
162.3004DA8XSNR BEL1:43:381:43:584:58 12.124XXX613
163.1855ALBERTANI Patrice53BELUACDILAVILE1:43:551:44:024:58 12.1132VE2610CHATELINEAU
164.2300SMETS Mathieu57BEL1:43:531:44:114:58 12.0933VE2609VAL MEER
165.2049KRIER Pierre52BEL1:43:571:44:144:58 12.0934VE2608LIEGE
166.2222LÖHR Dirk40DEU1:44:071:44:164:58 12.0852VE1605SIMMERATH
167.2065CURVERS Rudi44BELLA GAUME1:43:561:44:174:58 12.0853VE1607VIRTON
168.175HEINE Jean-Michel38BELEPIDEMIE1:43:501:44:184:58 12.0858SEN607WAREMME
169.2028VAN AEL Henri37BELLAC EUPEN1:44:031:44:194:59 12.0859SEN604EUPEN
170.2025TALMAS Olivier34BEL1:43:581:44:254:59 12.0760SEN604HENRI CHAPELLE
171.209GODEFRIDI Thierry55BEL1:44:191:44:264:59 12.0735VE2600RIXENSART
172.404TILBURGS Frank39BELAVN1:44:261:44:324:59 12.0561SEN598MEER
173.2070PHILIPPE Olivier13BELRCB1:44:331:44:334:59 12.055ESP595
174.923CEULEMANS Nicolas36BELANTILOB1:44:291:44:384:59 12.0462SEN595INCOURT
175.288HEINEN Henri62BELSERSERUNNER1:44:481:44:575:00 12.015VE3591SERAING
176.2253MEININGER Ulrich46BEL1:44:391:45:095:01 11.9854VE1592
177.446CALIFICE Stephane29BEL1:44:541:45:105:01 11.9863SEN589THIMISTER-CLERMONT
178.205RASSART Patrick48BELACLO1:45:231:45:315:02 11.9455VE1583MORLANWELZ
179.1122ZYLBERBERG Luc54BELJOGGANS1:45:231:45:365:02 11.9336VE2582BRUXELLES
180.2348VINCENT Xxx40BEL1:45:251:45:365:02 11.9356VE1581
181.2316DELARGE Jean-Yves35BELDACMJOGGANS1:45:231:45:375:02 11.9364SEN580BRUXELLES
182.2008FRIEDLA Edward46DEU1:45:311:45:475:03 11.9157VE1578AACHEN
183.1739RANDAXHE Francois51BELRFCL1:45:281:45:505:03 11.9137VE2578BEYNE HEUSAY
184.2219LEROY Philippe22BEL1:45:401:45:565:03 11.8965SEN575JALHAY
185.1256FRANCIS Rene73BELDCLA1:45:421:45:595:03 11.891VE4574HERENT
186.2278BOSSAETS Luc52BELNIJLENSE AV1:45:581:46:075:04 11.8738VE2571
187.2288FMERTENS Evelyne27BELSCBSCBUTG1:45:561:46:105:04 11.876DAM571BULLANGE
188.1503FBEL Linda42BELBRABO1:46:181:46:215:04 11.855AI1566BORGERHOUT
189.2256VERMEULEN Jozef59BELLIERNIJLENSE AV1:46:101:46:215:04 11.8539VE2566BERLAAR
190.755VAN HEULENBERGHE Frank50BEL1:46:111:46:255:05 11.8440VE2566GENT
191.199PIRLOT Andre55BELEPIDEMIE1:46:031:46:325:05 11.8341VE2566REMICOURT
192.498HEYNDRICKX Jan44BELKAPUCIJN1:46:291:46:355:05 11.8258VE1561BERTEM
193.2024SCHRÖTELER Stefan50DEUFC GERMANIA VOS1:46:231:46:375:05 11.8242VE2561HÜRTGENWALD
194.2285BOEMER Serge33BEL1:46:351:46:375:05 11.8266SEN559
195.1454MUYTJENS Rene61BELANTILOB1:46:251:46:425:05 11.816VE3560OTTIGNIES
196.1508DEVRIEZE Dirk51BELBRABO1:46:411:46:455:05 11.8043VE2556BERCHEM
197.673CAMPION Sylvain43BEL1:46:371:46:475:06 11.8059VE1556DIEPENBEEK
198.2045DAMOISEAUX Pascal41BELRCNRCN1:46:301:46:585:06 11.7860VE1556SAINT-SERVAIS
199.2059DEFLANDRE J.Marie43BELOLNE1:46:371:46:595:06 11.7861VE1554SOUMAGNE
200.2296THEISSEN Jurgen39BELTV KONZEN1:46:441:47:005:06 11.7867SEN552
201.2276THEISSEN Marco35BELTV KONZEN1:46:461:47:005:06 11.7868SEN551
202.1378MELON Jean-Marc48BELNAC1:46:531:47:055:06 11.7762VE1549BAULERS
203.1869RIJCKAERT Fabian36BEL1:46:491:47:165:07 11.7569SEN549ANDENNE
204.703ROOS Joel38BEL1:47:121:47:165:07 11.7570SEN544FRASNES-LEZ-ANVAING
205.1058VERHOFSTADT Camille61BELJC HSH1:47:181:47:235:07 11.737VE3543MARBAIX-LA-TOUR
206.3003DA5KVNM BEL1:47:011:47:345:08 11.715XXX545
207.2214FHUSTINGS Martine41BEL1:47:291:47:405:08 11.706AI1539WAREMME
208.2212GUILLICK Claude42BELWAC1:47:291:47:405:08 11.7063VE1538WAREMME
209.1649SCHOONBROODT Leon63BELLACEPDS EUPEN1:47:461:47:485:08 11.698VE3535EUPEN
210.2323MIEVIS Stephane27BEL1:47:401:47:535:09 11.6871SEN535
211.2345GARA Stéphane55BEL1:47:391:48:015:09 11.6644VE2534OLNE
212.2299KUPPER Walter53BEL1:48:011:48:095:09 11.6545VE2530
213.2064SAINT-GUILLAIN Gilles47BEL1:47:581:48:195:10 11.6364VE1530SAINT-LÉGER
214.2364CAMPENAIRE Yves42BEL1:47:581:48:195:10 11.6365VE1529SAINT-LÉGER
215.2012HUYBRECHTS Bart32BEL1:48:121:48:215:10 11.6372SEN526TURNHOUT
216.425MOREAU Jean-Louis46BELJCCS1:48:061:48:235:10 11.6366VE1526TOERNICH
217.2310FLEEUWEN Inge46NLD1:48:161:48:275:10 11.627AI1524HEERLEN
218.2265AMAND Francois44BELRFCL1:48:091:48:295:10 11.6167VE1524SPRIMONT
219.2354DANNEMARK Maxime21BELSCBUTG1:48:381:48:445:11 11.5973SEN518WAIMES
220.2050WEYNAND Helmut63BELSCBUTG1:48:391:48:475:11 11.589VE3518BÛLLINGEN
221.2027THEMELIN Michel51BELACD1:48:411:48:565:12 11.5746VE2517ETHE
222.1216RASBASH Andrew52BEL1:48:281:49:055:12 11.5547VE2518BRUXELLES
223.126CENNE Yves36BEL1:48:561:49:105:12 11.5474SEN513LIEGE
224.2201BUSTIN Alain56BELJOGGPLUS1:48:431:49:105:12 11.5448VE2514BOUGE
225.2254OBBELS Paul56BELLIERS1:49:051:49:185:13 11.5349VE2510
226.2248HANF Alain25BELTV NIDRUM1:49:131:49:205:13 11.5275SEN507NIDRUM
227.1590POPPE Christian47BEL1:49:081:49:225:13 11.5268VE1507MARCHE-EN-FAMENNE
228.2284ERNST Eric38BEL1:49:021:49:275:13 11.5176SEN508
229.2326KUPPENS Olivier36BEL1:49:151:49:295:13 11.5177SEN505TILFF
230.2349GARDIER Charles64BELSPA1:49:191:49:365:14 11.5010VE3503
231.33GEORGES François50BEL1:49:171:49:405:14 11.4950VE2503IXELLES
232.1675GANTOIS Gerald39BELEPIDEMIE1:49:261:49:555:15 11.4678SEN501MOMALLE
233.2319HEYMAN Dirk44BEL1:49:231:49:575:15 11.4669VE1500
234.465BOSKIN Jean-Claude51BEL1:49:591:50:195:16 11.4251VE2494STAVELOT
235.2336PAQUAY Didier39BEL1:50:121:50:245:16 11.4179SEN491WAIMES
236.2007FOURNY Philippe51BELSERSERUNNER1:50:211:50:315:16 11.4052VE2489CHAUDFONTAINE
237.1198GOOSSENS Jean50BELSPTWAVRE1:50:141:50:385:17 11.3953VE2489WAVRE
238.2363SCHMITZ Stephan28BELLACELACE1:50:361:50:415:17 11.3880SEN484
239.865SANTOCONO Jerome45BELACLO1:50:291:50:475:17 11.3770VE1485MORLANWELZ
240.2322BONSIGNORE Vincent47BELACLO1:50:291:50:475:17 11.3771VE1484LA LOUVIÈRE
241.2067STAHL Jurgen53DEUROETGEN1:50:341:50:475:17 11.3754VE2483ROETGEN
242.2009GERBER Sven36BELBRANDER SV AACH1:50:241:50:585:18 11.3581SEN483EYNATTEN
243.2356DANNEMARK Walter48BEL1:50:501:50:585:18 11.3572VE1478
244.1960SPLINGARD Jean Claude48BELACLO1:50:431:51:005:18 11.3573VE1479HAINE-SAINT-PAUL
245.2227MEYER Andreas24BEL1:50:411:51:085:18 11.3482SEN478SCHÖNBERG
246.790FOLIE Yvon49BEL1:51:021:51:165:18 11.3274VE1474AWENNE (SAINT-HUBERT)
247.1209ROBERTI Henri57BEL1:51:291:51:395:19 11.2955VE2469LIEGE
248.2251FSCHUETZ Stephanie37BELTV KONZEN1:51:261:51:415:20 11.287DAM469
249.2036RODEO Edgar49DEUTV KONZEN1:51:261:51:415:20 11.2875VE1468MONSCHAU
250.2002BRAUNLEDER Joerg39DEUTV KONZEN1:51:271:51:415:20 11.2883SEN467AACHEN
251.2068LIENNE Ralph46BEL1:51:251:51:525:20 11.2676VE1467EUPEN
252.2019PETERS Johann44BELAC EIFEL1:51:361:51:585:20 11.2577VE1464BURG-REULAND
253.2047FKOESTNER Ursula41DEUFC WEIDE1:51:531:52:165:21 11.228AI1460
254.2350BOHMANN Roy42BELSJ SOFTWARE1:52:061:52:185:21 11.2278VE1458
255.2329NOPPENEY Dietmar39BELSJ SOFTWARE1:52:061:52:195:21 11.2284SEN457
256.2275HAEGEMANS Paul44BEL1:52:091:52:245:22 11.2179VE1456WERCHTER
257.2014KREIE Peter47DEULT CLOVERSOFT1:52:141:52:275:22 11.2080VE1454LANGENFELD
258.1736LEFEVERE Alain47BELACA1:52:211:52:305:22 11.2081VE1452SINT TRUIDEN
259.1079CHARLIER Michel36BEL1:52:061:52:365:22 11.1985SEN454REMIRECOURT
260.2368FICKERS Alexandre37BEL1:52:151:52:395:22 11.1986SEN452
261.1062SIMON Bernard39BEL1:52:271:52:505:23 11.1787SEN449FLORIFFOUX
262.192GEUSKENS J.Marc42BEL1:52:501:52:585:23 11.1582VE1444BRUXELLES
263.2303HAINAUT Charles47BEL1:52:451:53:025:23 11.1583VE1445
264.3007DR5A74V BEL1:52:571:53:085:24 11.146XXX442
265.1461FPAAL Margueritte38BEL1:53:161:53:315:25 11.108DAM438FLAWINNE
266.56MONFORT Andre71BELONHHAC1:53:311:53:325:25 11.102VE4435SOIGNIES
267.669BRUYERE Francis59BELDSAPH1:53:071:53:345:25 11.0956VE2438HAVRE
268.1751FLEYENS Marie-Anne50BELSPRIMONT1:53:221:53:345:25 11.093AI2434ANGLEUR
269.801FVANDERBEMDEN Axelle31BEL1:53:161:53:375:25 11.099DAM435WALHAIN
270.2044GILLAIN Pierre51BELRCN1:53:171:53:445:25 11.0857VE2434NAMUR
271.2032FHECK Ruth50BELSCBUTG1:53:471:53:555:26 11.064AI2428BUTGENBACH
272.2011FHEUEL Rita64DEULG MÜTZENICH1:53:521:54:015:26 11.051AI3427
273.1560VANDERSMISSEN Marcel70BEL1:53:461:54:025:26 11.053VE4427STEVOORT
274.59LIEGEOIS J.Louis54BELLAC1:53:361:54:045:26 11.0558VE2428HEVERLEE
275.242VAN ESPEN Michel51BELACLO1:53:451:54:065:26 11.0459VE2426HAINE SAINT PIERRE
276.375HERMANS Luc56BEL1:53:411:54:125:27 11.0360VE2426LIBIN
277.2030VOSSEN Juergen40BELLONTZEN1:54:031:54:215:27 11.0284VE1421LONTZEN
278.2309NOKIN Xavier40BEL1:53:571:54:315:28 11.0085VE1421
279.2202CEUPPENS Geert33BELHAMURABI1:54:161:54:345:28 11.0088SEN418DUFFEL
280.2225FMARCHAL Marie-Anne49BEL1:54:091:54:355:28 11.009AI1418IXELLES
281.2262BAHNEN Ralf39BEL1:54:321:54:405:28 10.9989SEN414
282.2241PAULUS Peter57BEL1:54:251:54:485:28 10.9861VE2414
283.1824FBERMINGHAM Mary36BELRCBRCB-GAL1:54:461:54:525:29 10.9710DAM410BRUXELLES
284.777KINET Serge48BELJOGGPLUS1:54:371:54:595:29 10.9686VE1411FLEMALLE-HAUTE
285.2359FRODER Anita29DEU1:54:431:55:025:29 10.9511DAM409SIMMERATH
286.2228MÜRKENS Stephan44BEL1:54:351:55:095:29 10.9487VE1409EYNATTEN-RAEREN
287.368VIAENE Bernard61BELHAC1:54:371:55:105:30 10.9411VE3408HERVE
288.990GODELET Christian36BELFOUL PLAIS1:54:401:55:125:30 10.9490SEN407HUY
289.2055JACQUES Yves42BELNAC1:55:021:55:145:30 10.9388VE1403HOUTAIN-LE-VAL
290.225OLIVIER Pierre48BELLE JOUR VERVIER1:54:561:55:275:30 10.9189VE1403HANEFFE
291.346LELOUP Yves52BELFLEU1:55:221:55:325:31 10.9162VE2398ST-AMAND
292.1414SANTOCONO Luca16BELACLO1:55:151:55:355:31 10.906ESP398MORLANWELZ
293.2051DE BRABANTER Eric43LUX1:55:211:55:385:31 10.9090VE1397STEINSEL
294.820NEUVILLE Christian52BELRCSPL1:55:301:55:435:31 10.8963VE2395LIEGE GRIVEGNEE
295.1516FPLETINCKX Martine52BELANTILOB1:55:191:55:485:31 10.885AI2395GENVAL
296.2020PIANCATELLI Paolo43BEL1:55:391:56:035:32 10.8691VE1391BATTICE
297.125FVAN DER ZWALMEN Sabine26BELRIWA1:56:021:56:075:32 10.8512DAM387LASNE
298.155AKKERMANS Francois56BELBRASS1:55:471:56:135:33 10.8464VE2389BRASSCHAAT
299.754LARMINIER Claude52BELSERSERUNNER1:56:261:56:335:33 10.8165VE2382LIEGE
300.2277FREZIN Olivier43BEL1:56:231:56:385:34 10.8092VE1382LA LOUVIÈRE
301.632MAINIL Michel57BELMSF1:56:051:56:425:34 10.8066VE2384HAINE-ST-PIERRE
302.2317CAJOT Pierre31BEL1:56:261:56:425:34 10.8091SEN380LIEGE
303.2318REMION Thierry31BEL1:56:271:56:425:34 10.8092SEN379
304.2324MATTAR Danny44BEL1:56:231:56:465:34 10.7993VE1379
305.2315FFARCY Monique54BEL1:56:411:56:475:34 10.796AI2375MALMEDY
306.1967DEVOS Serge35BEL1:56:271:57:055:35 10.7693SEN376BRUXELLES
307.440ETIENNE Christian55BELRCN1:56:441:57:105:35 10.7567VE2373LEUZE-LONGCHAMPS
308.2041PAULUS Benoit21BELRCN1:57:001:57:285:36 10.7394SEN370SAINT-SERVAIS
309.25HANNOTTE Christophe33BELING1:57:101:57:365:36 10.7195SEN367NOVILLE-LES-BOIS
310.1661COOREMANS Guy40BELA.N.M.C1:57:201:57:405:37 10.7194VE1365SOYE
311.1877VREUX Eric50BEL1:58:001:58:165:38 10.6568VE2358
312.1912COLSON Pascal44BELACLO1:58:001:58:215:39 10.6595VE1357MANAGE
312.643MASSART Patrick48BELHRC1:57:551:58:215:39 10.6595VE1358ARLON
314.2001BAUTE Benoit36BEL1:58:161:58:365:39 10.6296SEN353VERVIERS
315.282KESTELYN Etienne72BELSERSERUNNER1:58:271:58:375:39 10.624VE4351BONCELLES
316.51VAN POPERING Emile53BELKAPUCIJN1:58:091:58:385:39 10.6269VE2353HALLE
317.2005DESCAMPS Etienne43BEL1:58:161:58:445:40 10.6197VE1351FLORENNES
318.1153MASSART Victor53BELACLOULTRA MA1:58:281:58:575:40 10.5970VE2348COUILLET
319.2282WEYDERS Marcel60BELRCNRCN1:58:471:59:135:41 10.5712VE3345
320.1938DIRICQ Dominique47BELNAC1:59:141:59:265:42 10.5598VE1340OBAIX
321.1114DEBREUX Didier42BEL1:59:371:59:525:43 10.5199VE1336MARBEHAN
322.2338THISSEN Philippe44BELSPA1:59:151:59:535:43 10.51100VE1338THEUX
323.1365STREBER Fernand51BELARCH1:59:552:00:035:43 10.5071VE2331SERINCHAMPS
324.1580PAYEN Pierre58BELRCB1:59:482:00:105:44 10.4972VE2332ETTERBEEK
325.2029VAN CAMP Hugo48BEL2:00:052:00:175:44 10.48101VE1328HAACHT
326.2274DEFLOOR Philippe43BELBVAC1:59:422:00:185:44 10.47102VE1331
327.1223JANSSENS Jacky56BEL1:59:422:00:185:44 10.4773VE2330ANTWERPEN
328.1769DUMONT Alain46BELRCN1:59:532:00:205:44 10.47103VE1328JAMBES
329.1671TROCH Paul56BEL1:59:592:00:225:44 10.4774VE2326GIBECQ
330.1833TIJSKENS Wannes52BELBVAC1:59:492:00:235:44 10.4775VE2327BERCHEM
331.1878ROMAIN Bernard49BELJAMES2:00:032:00:285:45 10.46104VE1324CHASTRE
332.2018FPAULS Rosa52DEULG MÜTZENICH2:00:242:00:345:45 10.457AI2320
333.1432FSALENS Lia41BEL2:00:132:00:385:45 10.4410AI1321WOLVERTEM
334.2026THEISSEN Markus43DEULG MÜTZENICH1:55:002:00:425:45 10.44105VE1369AACHEN
335.2203DE BRUYN André57BELBVAC2:00:372:00:475:46 10.4376VE2316WILRIJK
336.2330FGRUNDBRECHER Karla38BELVIKTORIA2:00:252:00:495:46 10.4313DAM317
337.2242FDAHMEN Alexa46BELSCBUTG2:00:462:00:545:46 10.4211AI1313ELSENBORN
338.2240SCHIFFLERS Xxx35BEL2:00:462:00:575:46 10.4297SEN312
339.377SPRIMONT Olivier43BEL2:01:212:01:475:48 10.35106VE1306UCCLE
340.2367KRANNEN Michel41BEL2:01:302:01:595:49 10.33107VE1304AUBEL
341.2069DORTU Christian41BEL2:01:302:02:005:49 10.33108VE1303AUBEL
342.2213HEUKEMES Mario39BEL2:01:492:02:125:50 10.3198SEN300ELSENBORN
343.1427FMARION Paulette47BELARCH2:02:212:02:295:50 10.2912AI1294CINEY
344.1926LEJEUNE Christian57BEL16502:01:532:02:455:51 10.2677VE2298VERVIERS
345.1417CLESEUR Claude55BELCELESTES2:02:142:02:455:51 10.2678VE2294MALONNE
345.1700FPETERS Chantal43BEL2:02:142:02:455:51 10.2613AI1294MALONNE
347.2366WANSART Jean-Claude63BELMENUISERIE WANS2:02:212:02:545:52 10.2513VE3291
348.2295FBERNS Anne36BEL2:02:282:03:035:52 10.2414DAM289
349.2250LANGER Manfred64BELSCELS2:02:522:03:235:53 10.2114VE3285
350.2312KEVER Werner43BEL2:03:052:03:285:53 10.21109VE1282
351.2264DORSCHEID Michael47BEL2:03:122:03:395:54 10.19110VE1281
352.1199FGUILLAUME Beatrice45BELSPTWAVRE2:03:212:03:455:54 10.1814AI1278WAVRE
353.2052THOMA Ralph43DEULG MÜTZENICH2:03:102:03:505:54 10.17111VE1279MONSCHAU
354.195GEUSKENS Georges72BEL2:03:442:03:525:54 10.175VE4273BRUXELLES
355.2328DODET Fabian29BEL2:03:412:03:585:55 10.1699SEN273GRIVEGNEE
356.488COLLIN Jean-Marc54BEL2:03:342:03:595:55 10.1679VE2273CHATELET
357.2209DITTRICH Klaus57DEUDLC AACHEN2:03:432:04:025:55 10.1680VE2271AACHEN
358.475GRAINDOR Paul65BELSPRIMONT2:03:402:04:135:55 10.1415VE3271SAIVE
359.2291SCHLECK Erwin43BELWERTH2:03:562:04:275:56 10.12112VE1268BAELEN
360.2040BRAUS Klaus Robert54BEL2:04:022:04:295:56 10.1281VE2266
361.434WAUTERS Pierrot49BEL2:04:122:04:345:56 10.12113VE1264CRISNEE
362.2355FDANNEMARK Sylvia47BEL2:04:182:04:415:57 10.1115AI1263WAIMES
363.2297TROLL Felix47DEU2:04:302:04:495:57 10.09114VE1260AACHEN
364.2211FGOEMAERE Marianne50BELACD2:04:352:04:515:57 10.098AI2258ETHE
365.663FMASSON Julie29BELJOGGANS2:04:392:05:105:58 10.0715DAM257JETTE
366.2270REITZ Johny60LUXCSN CLERVAUX2:04:562:05:225:59 10.0516VE3254LIELER
367.1785VLAMINCK Thierry36BELUSBWUSBW ROAD2:05:282:05:476:00 10.02100SEN248BRAINE L'ALLEUD
368.2261SCHUSTER Thomas39BEL2:05:122:05:476:00 10.02101SEN250
369.2229PLUMACHER Thierry28BEL2:05:262:05:536:00 10.01102SEN247WEYWERTZ
370.430DE PAEPE Pieter64BELSERSERUNNER2:05:232:05:566:00 10.0117VE3247GRACE-HOLLOGNE
371.252ANTOINE Alain45BELRCN2:06:142:06:416:02 9.95115VE1238BOUGE
372.547BOVY Marc46BELSPA2:06:442:06:446:03 9.94116VE1234CRISNEE
373.2287WAGEMANS Jos35BEL2:06:322:06:446:03 9.94103SEN235
374.1532FHENNERESSE Isabelle36BELJCCS2:06:282:06:586:03 9.9216DAM234SART-CUSTINNE
375.2218FLARMINIER Anne-Marie50BEL2:06:222:07:116:04 9.919AI2234SOUMAGNE
376.2060HAMACHER Hans-Winand51BEL2:06:382:07:126:04 9.9182VE2231
377.2234VARLET Stephan48BELLE JOUR VERVIER2:06:422:07:136:04 9.90117VE1230VERVIERS
378.2063BERNARD Xxx45BEL2:06:532:07:296:05 9.88118VE1228
379.1034FGEVENOIS M.Rose56BELUACDILAVILE2:07:342:07:416:05 9.8710AI2221LES BONS VILLERS
380.1035FERAUCHE Jean Marie57BELUACDILAVILE2:07:352:07:416:05 9.8783VE2220LES BONS VILLERS
381.972HURLET Bernard53BEL2:07:182:07:546:06 9.8584VE2222LONTZEN
382.863LACROIX Freddy62BELDACMSIPPELB2:07:452:07:596:06 9.8518VE3217JETTE
383.55ROBERTI DE WINGHE Max51BELLACRONVAU2:07:472:08:056:06 9.8485VE2216ARCHENNES
384.2321FDAMOISEAUX Eva55BELLG MÜTZENICH2:07:582:08:076:07 9.8311AI2214
385.438SCHUERMANS Vincent30BEL2:08:162:08:306:08 9.81104SEN210LIÈGE
386.231FLANDUYT Evelien27BELDCLA2:08:502:09:256:10 9.7417DAM205HALEN
387.232VANDENBROECK Tom28BELDCLA2:08:512:09:266:10 9.73105SEN204
388.277HEYNEN William49BEL2:09:392:10:046:12 9.69119VE1196NANDRIN
389.92DEFAYS Pol77BELSCBUTG2:10:072:10:126:12 9.686VE4192LONGFAYE
390.1396FWENDRICKX Brigitte45BELMARCKLOP2:10:482:10:546:14 9.6316AI1185WORTEL
391.2017NEUBAUER Hartmut49DEULAUFTREFF KÖLN 2:10:502:11:116:15 9.60120VE1184KÖLN
392.2289FHEYNEN Stephanie22BEL2:10:542:11:196:16 9.6018DAM183NANDRIN
393.2283BODET Michel49BELHRC2:10:482:11:226:16 9.59121VE1183ARLON
394.495DISWISCOURT Jose52BELHRC2:11:422:12:086:18 9.5486VE2174HARINSART
395.439GODENIR André60BELJAMES2:11:502:12:086:18 9.5419VE3173EBLY
396.2207FDENARD Stéphanie27BEL2:12:302:12:426:20 9.5019DAM166VERVIERS
397.2006EVRARD Francis52BELBJB2:12:302:12:426:20 9.5087VE2166HOUDENG-AIMERIES
398.2206DENARD Marc53BEL2:12:312:12:436:20 9.4988VE2165GOE
399.2247NELLES Dominique35BELTV NIDRUM2:12:422:12:516:20 9.48106SEN163
400.293FCARTIAUX Muriel37BELRCBRCN2:12:472:13:066:21 9.4720DAM161IXELLES
401.559MORADIELLOS Fernando51BELIXELJOGGPLUS2:12:472:13:066:21 9.4789VE2160UCCLE
402.399ROSSION Yvon58BEL2:12:542:13:096:21 9.4690VE2159LIEGE
403.2333LEPAGE Bernard37BEL2:13:372:14:006:23 9.40107SEN152WAIMES
404.799ODEURS Jean-Claude50BELSERSERUNNER2:13:452:14:006:23 9.4091VE2150OTHEE
405.2293FFATZAUN DanielleBELLACE2:14:052:14:286:25 9.377XXX146
406.300FADAM Francoise45BELHRC2:14:382:15:036:26 9.3317AI1141VIRTON
407.2205DE SCHEEMAECKER Rudy51BEL2:14:532:15:156:27 9.3292VE2139GENT
408.1342FDEWILDE Magali42BELDACMJOGGANS2:15:082:15:226:27 9.3118AI1136MOLENBEEK-ST-JEAN
409.1600FLORKIN Marc53BELCOLONSTE2:15:282:15:536:29 9.2793VE2132SERAING
410.1154OFFERMANN Engelbert70BELSCBUTG2:15:482:15:566:29 9.277VE4129ELSENBORN
411.1921CE48126 BEL2:16:112:16:366:31 9.228XXX125
412.37HANSENNE Marc60BELSERSERUNNER2:17:252:17:576:35 9.1320VE3114NEUPRE
413.491SIZAIRE Jacques51BELLFDM2:17:332:17:576:35 9.1394VE2112MEIX-DVT-VIRTON
414.206MERCENIER Maurice47BELAMAY2:17:312:17:586:35 9.13122VE1112AMAY
415.249PIRSON Patrice49BELJCCS2:17:542:18:256:36 9.10123VE1108SART-CUSTINNE
416.2267FNEUBERG Marie-Paule45BEL2:18:032:18:376:37 9.0919AI1106HEINSCH
417.2353SCHLECK Stephane25BEL2:19:232:19:466:40 9.02108SEN95
418.2357MINGUET Valery31BEL2:19:522:20:186:41 8.98109SEN90
419.2298HEYNEN Julien19BEL2:20:012:20:256:42 8.977ESP88
420.2268FKNOBEL Karin47BEL2:20:302:21:046:44 8.9320AI184
421.2039NYSSEN Siegfried50BEL2:20:352:21:096:44 8.9395VE282LONTZEN
422.2245GEURTS Francis61BELLACEERTK2:21:102:21:136:44 8.9221VE377
423.1060FCALIFICE Huberte53BELLE JOUR VERVIER2:20:572:21:276:45 8.9112AI278CHARNEUX
424.1008FTILLY Georgette45BEL2:21:162:21:406:45 8.8921AI175CHIEVRES
425.183VANDER AUWERA Daniel72BEL2:22:262:22:596:49 8.818VE465BRUXELLES
426.2220LESOINNE Sylvain26BEL2:23:242:23:566:52 8.75110SEN57BOLLAND
427.2249BOVY Jean-Luc40BEL2:25:082:25:396:57 8.65124VE143
428.704SUY Herman64BELBEAC2:26:042:26:306:59 8.6022VE335BERCHEM
429.2304CURTZ Robert35BEL2:26:122:26:447:00 8.59111SEN33THIMISTER-CLERMONT
430.2320FSCHELFHOUT Annie60BELJOGGANS2:28:462:29:197:07 8.442AI313MOLENBEEK-SAINT-JEAN
431.1121DERWAEL Pierre73BELSERSERUNNER2:28:502:29:217:07 8.449VE412GRACE-HOLLOGNE
432.2056SCHMITZ Wilhelm73BELUSV2:33:092:33:457:20 8.2010VE48
433.1477FDECELLIER Dominique49BELACLO2:35:222:35:517:26 8.0822AI17COUILLET
434.2244FDEELEN Reinhilde49BELAC BREAK2:38:272:38:377:34 7.9423AI16BRASSCHAAT
435.1081VAN GOETHEM Paul59BEL2:39:402:40:167:38 7.8696VE26BERCHEM
436.2292VOSSEN Daniel47BEL2:42:202:42:597:46 7.73125VE15LIÈGE
437.169BRUN Felice52BEL2:53:222:53:418:17 7.2597VE24MALONNE
438.1200FROBBEN Angele65BEL2:56:562:57:178:27 7.113AI33STEVOORT-HASSELT
439.2252DION Edouard23BELKURISTO3:31:353:31:3510:05 5.96112SEN3
440.920CLAMOT Daniel50BELKURISTO3:31:373:31:3710:05 5.9598VE22LIGNY
441.667FGOFFART Brigitte52BELKURISTO3:31:373:31:3710:05 5.9513AI21BRUXELLES
442.1451MARRACCINI Lorenzo69BEL3:44:023:44:0210:41 5.6223VE31SINT-STEVENS-WOLUWE
DNF383FCOSTA Lucia45BELFLEUAI1WANGENIES
DNF2347DEHOTTAY Andre47BELVE1
DNF2062DERWAEL Alain37BELCAPNRBSENSERAING
DNF1368LEGRAIN Fabrice33BELSENECAUSSINNES
DNF2360MONVILLE Jean-Marc40BELVE1SPA
DNF: abandon; DSQ: disqualifié; Vitesse en km/h
Page: [1]